Time;durP1;ratioP1;P1;durP2;ratioP2;P2;SDS_P1;SDS_P2;PMS_P1;PMS_P2;Temp;Humidity;BMP_temperature;BMP_pressure;BME280_temperature;BME280_humidity;BME280_pressure;Samples;Min_cycle;Max_cycle;Signal;HPM_P1;HPM_P2
2022/04/14 00:00:23;;;;;;;11.90;7.10;;;11.70;99.90;;;;;;5022843;28;20520;-80
2022/04/14 00:02:49;;;;;;;10.73;7.27;;;11.70;99.90;;;;;;5005101;28;20045;-82
2022/04/14 00:05:15;;;;;;;15.13;7.67;;;11.70;99.90;;;;;;5020125;28;20060;-81
2022/04/14 00:07:41;;;;;;;14.53;7.10;;;11.60;99.90;;;;;;5025516;28;20111;-80
2022/04/14 00:10:07;;;;;;;10.73;6.70;;;11.60;99.90;;;;;;5022001;28;20044;-80
2022/04/14 00:12:34;;;;;;;14.77;7.60;;;11.60;99.90;;;;;;5007167;28;20045;-80
2022/04/14 00:15:01;;;;;;;13.20;7.30;;;11.60;99.90;;;;;;5006386;28;20421;-80
2022/04/14 00:17:28;;;;;;;12.57;6.87;;;11.60;99.90;;;;;;5008866;28;20057;-80
2022/04/14 00:19:53;;;;;;;14.93;7.80;;;11.60;99.90;;;;;;5003627;28;20041;-81
2022/04/14 00:22:20;;;;;;;16.43;7.50;;;11.50;99.90;;;;;;5003213;28;20060;-80
2022/04/14 00:24:46;;;;;;;12.50;7.60;;;11.50;99.90;;;;;;5027473;28;20053;-81
2022/04/14 00:27:11;;;;;;;14.30;7.83;;;11.50;99.90;;;;;;5026607;28;20060;-80
2022/04/14 00:29:38;;;;;;;9.70;7.00;;;11.40;99.90;;;;;;5042680;28;20123;-80
2022/04/14 00:32:05;;;;;;;13.07;7.60;;;11.40;99.90;;;;;;5008424;28;20053;-80
2022/04/14 00:34:32;;;;;;;16.37;7.77;;;11.30;99.90;;;;;;5024283;28;20050;-80
2022/04/14 00:36:58;;;;;;;12.60;7.60;;;11.30;99.90;;;;;;5023995;28;20461;-80
2022/04/14 00:39:24;;;;;;;15.33;8.20;;;11.30;99.90;;;;;;5000889;28;20050;-80
2022/04/14 00:41:49;;;;;;;11.33;7.20;;;11.30;99.90;;;;;;5036179;28;20124;-80
2022/04/14 00:44:15;;;;;;;15.43;7.23;;;11.30;99.90;;;;;;5006467;28;20048;-80
2022/04/14 00:46:42;;;;;;;13.53;7.60;;;11.30;99.90;;;;;;5024622;28;20140;-80
2022/04/14 00:49:08;;;;;;;13.33;7.67;;;11.30;99.90;;;;;;5026956;28;20072;-80
2022/04/14 00:51:34;;;;;;;13.00;7.93;;;11.30;99.90;;;;;;5042466;28;20083;-80
2022/04/14 00:54:00;;;;;;;11.70;7.77;;;11.20;99.90;;;;;;5029288;28;20050;-80
2022/04/14 00:56:26;;;;;;;13.17;7.60;;;11.20;99.90;;;;;;5042942;28;20033;-79
2022/04/14 00:58:52;;;;;;;19.00;8.13;;;11.20;99.90;;;;;;5040703;28;20099;-80
2022/04/14 01:01:20;;;;;;;14.47;8.40;;;11.10;99.90;;;;;;5039492;28;20045;-80
2022/04/14 01:03:48;;;;;;;13.57;8.07;;;11.10;99.90;;;;;;5025377;28;20045;-80
2022/04/14 01:06:15;;;;;;;12.27;7.07;;;11.10;99.90;;;;;;5027023;28;20065;-79
2022/04/14 01:08:42;;;;;;;11.27;7.03;;;11.10;99.90;;;;;;5025972;28;20047;-79
2022/04/14 01:11:09;;;;;;;14.43;7.93;;;11.00;99.90;;;;;;5024885;28;20088;-80
2022/04/14 01:13:35;;;;;;;14.83;9.70;;;11.00;99.90;;;;;;5031841;28;20041;-80
2022/04/14 01:16:00;;;;;;;11.60;8.37;;;10.90;99.90;;;;;;5041367;28;20045;-80
2022/04/14 01:18:27;;;;;;;13.90;7.60;;;10.90;99.90;;;;;;5008694;28;20037;-80
2022/04/14 01:20:54;;;;;;;13.63;8.07;;;10.90;99.90;;;;;;5019534;28;20041;-80
2022/04/14 01:23:28;;;;;;;12.53;7.30;;;10.80;99.90;;;;;;5021738;28;20107;-80
2022/04/14 01:25:55;;;;;;;13.93;8.53;;;10.70;99.90;;;;;;5040812;28;20044;-80
2022/04/14 01:28:21;;;;;;;14.43;9.00;;;10.70;99.90;;;;;;5008984;28;20137;-81
2022/04/14 01:30:47;;;;;;;14.70;8.80;;;10.70;99.90;;;;;;5008149;28;20459;-80
2022/04/14 01:33:13;;;;;;;15.73;9.73;;;10.60;99.90;;;;;;5044343;28;20051;-80
2022/04/14 01:35:38;;;;;;;16.07;8.83;;;10.60;99.90;;;;;;5042739;28;20485;-79
2022/04/14 01:38:04;;;;;;;14.53;8.30;;;10.50;99.90;;;;;;5045034;28;20105;-80
2022/04/14 01:40:30;;;;;;;14.67;7.40;;;10.50;99.90;;;;;;5045241;28;20045;-80
2022/04/14 01:42:57;;;;;;;15.20;8.80;;;10.50;99.90;;;;;;5041528;28;20048;-80
2022/04/14 01:45:23;;;;;;;13.30;8.43;;;10.40;99.90;;;;;;5045548;28;20046;-79
2022/04/14 01:47:49;;;;;;;13.33;8.30;;;10.30;99.90;;;;;;5040769;28;20041;-80
2022/04/14 01:50:15;;;;;;;11.90;8.30;;;10.30;99.90;;;;;;5046874;28;20041;-80
2022/04/14 01:52:44;;;;;;;12.57;8.50;;;10.20;99.90;;;;;;5046165;28;20079;-83
2022/04/14 01:55:10;;;;;;;11.70;8.17;;;10.20;99.90;;;;;;5046651;28;20049;-80
2022/04/14 01:57:35;;;;;;;12.23;8.20;;;10.10;99.90;;;;;;5045606;28;20051;-80
2022/04/14 02:00:06;;;;;;;13.47;9.13;;;10.10;99.90;;;;;;5022231;28;20041;-79
2022/04/14 02:02:32;;;;;;;15.20;10.53;;;10.00;99.90;;;;;;5044624;28;20053;-81
2022/04/14 02:04:58;;;;;;;16.27;10.20;;;10.00;99.90;;;;;;5061506;28;20121;-80
2022/04/14 02:07:23;;;;;;;20.20;9.47;;;9.90;99.90;;;;;;5036328;28;20042;-80
2022/04/14 02:09:49;;;;;;;13.97;9.50;;;9.90;99.90;;;;;;5043948;28;20049;-79
2022/04/14 02:12:15;;;;;;;16.93;10.67;;;9.90;99.90;;;;;;5043893;28;20041;-80
2022/04/14 02:14:41;;;;;;;15.37;8.60;;;9.80;99.90;;;;;;5045845;28;20057;-80
2022/04/14 02:17:08;;;;;;;11.17;7.80;;;9.80;99.90;;;;;;5042596;28;20073;-80
2022/04/14 02:19:34;;;;;;;12.57;9.33;;;9.70;99.90;;;;;;5044348;28;20564;-80
2022/04/14 02:21:59;;;;;;;16.33;10.90;;;9.70;99.90;;;;;;5040482;28;20067;-80
2022/04/14 02:24:25;;;;;;;18.17;11.23;;;9.70;99.90;;;;;;5027553;28;20100;-80
2022/04/14 02:26:51;;;;;;;17.33;11.83;;;9.70;99.90;;;;;;5041602;28;20584;-80
2022/04/14 02:29:17;;;;;;;12.10;9.57;;;9.70;99.90;;;;;;5045039;28;20047;-80
2022/04/14 02:31:43;;;;;;;15.50;11.73;;;9.60;99.90;;;;;;5043433;28;20045;-80
2022/04/14 02:34:10;;;;;;;19.87;14.43;;;9.60;99.90;;;;;;5024656;28;20044;-79
2022/04/14 02:36:35;;;;;;;18.10;12.83;;;9.60;99.90;;;;;;5045951;28;20068;-81
2022/04/14 02:39:01;;;;;;;15.77;12.90;;;9.60;99.90;;;;;;5012857;28;20045;-80
2022/04/14 02:41:27;;;;;;;27.03;14.57;;;9.60;99.90;;;;;;5011426;28;20056;-81
2022/04/14 02:43:53;;;;;;;16.93;12.93;;;9.60;99.90;;;;;;5043695;28;20041;-79
2022/04/14 02:46:19;;;;;;;16.67;11.53;;;9.60;99.90;;;;;;5041659;28;20036;-79
2022/04/14 02:48:44;;;;;;;17.10;11.20;;;9.60;99.90;;;;;;5028746;28;20038;-79
2022/04/14 02:51:11;;;;;;;14.83;11.77;;;9.60;99.90;;;;;;5033775;28;20041;-80
2022/04/14 02:53:37;;;;;;;18.27;12.93;;;9.50;99.90;;;;;;5042214;28;20045;-80
2022/04/14 02:56:05;;;;;;;18.30;13.33;;;9.50;99.90;;;;;;5025640;28;20052;-80
2022/04/14 02:58:31;;;;;;;18.23;13.03;;;9.50;99.90;;;;;;5034710;28;20046;-79
2022/04/14 03:00:57;;;;;;;18.73;12.63;;;9.50;99.90;;;;;;5044396;28;20046;-79
2022/04/14 03:03:28;;;;;;;21.00;13.70;;;9.50;99.90;;;;;;5042514;28;20037;-80
2022/04/14 03:05:53;;;;;;;17.77;12.73;;;9.40;99.90;;;;;;5045161;28;20042;-79
2022/04/14 03:08:20;;;;;;;19.07;13.40;;;9.40;99.90;;;;;;5042320;28;20051;-80
2022/04/14 03:10:46;;;;;;;21.50;14.73;;;9.40;99.90;;;;;;5045257;28;20050;-81
2022/04/14 03:13:12;;;;;;;19.43;13.53;;;9.40;99.90;;;;;;5022406;28;20076;-80
2022/04/14 03:15:38;;;;;;;20.37;13.23;;;9.40;99.90;;;;;;5047450;28;20038;-80
2022/04/14 03:18:03;;;;;;;21.17;13.77;;;9.40;99.90;;;;;;5045026;28;20148;-80
2022/04/14 03:20:29;;;;;;;19.40;13.53;;;9.40;99.90;;;;;;5030556;28;20049;-80
2022/04/14 03:22:55;;;;;;;15.90;12.70;;;9.30;99.90;;;;;;5025150;28;20055;-80
2022/04/14 03:25:22;;;;;;;20.13;13.77;;;9.30;99.90;;;;;;5044918;28;20041;-80
2022/04/14 03:27:48;;;;;;;18.83;13.90;;;9.30;99.90;;;;;;5045597;28;20108;-80
2022/04/14 03:30:14;;;;;;;21.97;14.40;;;9.30;99.90;;;;;;5045020;28;20049;-80
2022/04/14 03:32:40;;;;;;;19.37;14.57;;;9.30;99.90;;;;;;5045255;28;20076;-80
2022/04/14 03:35:07;;;;;;;23.20;16.20;;;9.20;99.90;;;;;;5047738;28;20030;-80
2022/04/14 03:37:34;;;;;;;20.63;14.63;;;9.20;99.90;;;;;;5044650;28;20050;-80
2022/04/14 03:39:59;;;;;;;22.47;17.40;;;9.20;99.90;;;;;;5046240;28;20044;-80
2022/04/14 03:42:27;;;;;;;27.73;21.57;;;9.20;99.90;;;;;;5045068;28;20473;-81
2022/04/14 03:44:53;;;;;;;30.13;21.97;;;9.20;99.90;;;;;;5047335;28;20041;-80
2022/04/14 03:47:18;;;;;;;15.77;13.20;;;9.20;99.90;;;;;;5039380;28;20065;-80
2022/04/14 03:49:44;;;;;;;13.77;12.33;;;9.20;99.90;;;;;;5046427;28;20037;-80
2022/04/14 03:52:10;;;;;;;26.90;19.40;;;9.20;99.90;;;;;;5045835;28;20112;-79
2022/04/14 03:54:35;;;;;;;18.60;14.20;;;9.10;99.90;;;;;;5046547;28;20451;-80
2022/04/14 03:57:01;;;;;;;21.23;16.73;;;9.00;99.90;;;;;;5047075;28;20033;-80
2022/04/14 03:59:28;;;;;;;17.47;12.33;;;9.00;99.90;;;;;;5041016;28;20043;-79
2022/04/14 04:01:54;;;;;;;13.47;10.00;;;9.00;99.90;;;;;;5045541;28;20050;-79
2022/04/14 04:04:20;;;;;;;10.77;8.20;;;8.90;99.90;;;;;;5045503;28;20153;-80
2022/04/14 04:06:45;;;;;;;19.67;14.23;;;8.90;99.90;;;;;;5043958;28;20046;-79
2022/04/14 04:09:11;;;;;;;17.60;12.40;;;8.80;99.90;;;;;;5043798;28;20041;-79
2022/04/14 04:11:37;;;;;;;15.97;12.47;;;8.70;99.90;;;;;;5044051;28;20053;-79
2022/04/14 04:14:03;;;;;;;15.93;11.60;;;8.70;99.90;;;;;;5045011;28;20116;-80
2022/04/14 04:16:30;;;;;;;11.87;9.90;;;8.60;99.90;;;;;;5025424;28;20033;-80
2022/04/14 04:18:56;;;;;;;12.50;9.20;;;8.60;99.90;;;;;;5032290;28;20041;-79
2022/04/14 04:21:21;;;;;;;16.13;13.00;;;8.60;99.90;;;;;;5046777;28;20057;-80
2022/04/14 04:23:47;;;;;;;17.97;13.23;;;8.50;99.90;;;;;;5043613;28;20042;-80
2022/04/14 04:26:13;;;;;;;23.43;16.03;;;8.40;99.90;;;;;;5031913;28;20042;-79
2022/04/14 04:28:39;;;;;;;24.73;17.40;;;8.40;99.90;;;;;;5040638;28;20152;-79
2022/04/14 04:31:05;;;;;;;18.17;12.80;;;8.40;99.90;;;;;;5048601;28;20048;-80
2022/04/14 04:33:32;;;;;;;18.73;15.20;;;8.40;99.90;;;;;;5045443;28;20099;-79
2022/04/14 04:35:57;;;;;;;22.63;16.37;;;8.30;99.90;;;;;;5045219;28;20515;-79
2022/04/14 04:38:23;;;;;;;42.93;28.23;;;8.30;99.90;;;;;;5029528;28;20041;-79
2022/04/14 04:40:49;;;;;;;40.40;27.57;;;8.20;99.90;;;;;;5065657;28;20056;-79
2022/04/14 04:43:15;;;;;;;34.80;22.83;;;8.30;99.90;;;;;;5029523;28;20052;-80
2022/04/14 04:45:41;;;;;;;28.93;21.37;;;8.30;99.90;;;;;;5047055;28;20053;-80
2022/04/14 04:48:07;;;;;;;26.70;20.20;;;8.40;99.90;;;;;;5043418;28;20151;-80
2022/04/14 04:50:34;;;;;;;36.23;24.83;;;8.30;99.90;;;;;;5010377;28;20628;-79
2022/04/14 04:53:00;;;;;;;42.53;29.97;;;8.30;99.90;;;;;;5039019;28;20049;-79
2022/04/14 04:55:26;;;;;;;36.90;26.13;;;8.30;99.90;;;;;;5043661;28;20068;-80
2022/04/14 04:57:51;;;;;;;30.93;21.47;;;8.40;99.90;;;;;;5043097;28;20033;-80
2022/04/14 05:00:17;;;;;;;38.97;27.03;;;8.40;99.90;;;;;;5045034;28;20092;-80
2022/04/14 05:02:43;;;;;;;38.10;25.33;;;8.40;99.90;;;;;;5043720;28;20114;-80
2022/04/14 05:05:09;;;;;;;28.77;20.97;;;8.40;99.90;;;;;;5041994;28;20038;-79
2022/04/14 05:07:36;;;;;;;38.13;25.17;;;8.30;99.90;;;;;;5042741;28;20060;-79
2022/04/14 05:10:02;;;;;;;34.77;25.83;;;8.40;99.90;;;;;;5044118;28;20049;-79
2022/04/14 05:12:28;;;;;;;20.73;17.40;;;8.40;99.90;;;;;;5042550;28;20081;-80
2022/04/14 05:14:53;;;;;;;24.67;19.13;;;8.40;99.90;;;;;;5038886;28;20053;-80
2022/04/14 05:17:19;;;;;;;26.67;18.43;;;8.30;99.90;;;;;;5034128;28;20114;-79
2022/04/14 05:19:45;;;;;;;18.17;15.70;;;8.30;99.90;;;;;;5038407;28;20097;-79
2022/04/14 05:22:10;;;;;;;19.17;16.50;;;8.30;99.90;;;;;;4999535;28;20175;-79
2022/04/14 05:24:38;;;;;;;15.40;13.23;;;8.30;99.90;;;;;;5029280;28;20412;-78
2022/04/14 05:27:04;;;;;;;17.13;12.83;;;8.20;99.90;;;;;;5017217;28;20068;-79
2022/04/14 05:29:30;;;;;;;19.47;13.97;;;8.20;99.90;;;;;;5019509;28;20556;-78
2022/04/14 05:31:56;;;;;;;19.53;14.77;;;8.20;99.90;;;;;;5019951;28;20038;-79
2022/04/14 05:34:22;;;;;;;22.53;15.87;;;8.20;99.90;;;;;;5034059;28;20049;-80
2022/04/14 05:36:48;;;;;;;16.87;13.97;;;8.20;99.90;;;;;;5020984;28;20045;-79
2022/04/14 05:39:13;;;;;;;17.13;13.20;;;8.30;99.90;;;;;;5022795;28;20045;-79
2022/04/14 05:41:40;;;;;;;18.97;12.93;;;8.50;99.90;;;;;;5037453;28;20579;-79
2022/04/14 05:44:06;;;;;;;17.87;13.27;;;8.60;99.90;;;;;;5019774;28;20049;-79
2022/04/14 05:46:32;;;;;;;16.13;12.83;;;8.70;99.90;;;;;;5008150;28;20050;-79
2022/04/14 05:48:57;;;;;;;19.97;15.07;;;8.70;99.90;;;;;;5057659;28;20056;-78
2022/04/14 05:51:23;;;;;;;20.50;15.07;;;8.80;99.90;;;;;;5027106;28;20049;-79
2022/04/14 05:53:51;;;;;;;19.10;14.93;;;8.90;99.90;;;;;;5018520;28;20049;-79
2022/04/14 05:56:17;;;;;;;23.50;16.53;;;8.90;99.90;;;;;;5038591;28;20053;-78
2022/04/14 05:58:45;;;;;;;28.83;21.57;;;9.10;99.90;;;;;;5005562;28;20055;-80
2022/04/14 06:01:11;;;;;;;36.33;23.70;;;9.20;99.90;;;;;;5044929;28;20060;-80
2022/04/14 06:03:38;;;;;;;34.20;27.30;;;9.40;99.90;;;;;;5048153;28;20045;-78
2022/04/14 06:06:04;;;;;;;48.23;33.27;;;9.60;99.90;;;;;;5021169;28;20037;-78
2022/04/14 06:08:29;;;;;;;45.33;32.17;;;9.80;99.90;;;;;;5028465;28;20049;-79
2022/04/14 06:10:55;;;;;;;54.03;35.10;;;9.90;99.90;;;;;;5043461;28;20094;-80
2022/04/14 06:13:21;;;;;;;40.70;30.13;;;10.10;99.90;;;;;;5003012;28;20556;-79
2022/04/14 06:15:48;;;;;;;44.13;31.63;;;10.30;99.90;;;;;;5042669;28;20049;-79
2022/04/14 06:18:13;;;;;;;48.10;33.20;;;10.50;99.90;;;;;;5013728;28;20132;-80
2022/04/14 06:20:39;;;;;;;42.17;30.40;;;10.60;99.90;;;;;;5032451;28;20084;-79
2022/04/14 06:23:05;;;;;;;51.43;36.07;;;10.70;99.90;;;;;;5033076;28;20037;-79
2022/04/14 06:25:31;;;;;;;45.20;33.97;;;10.90;99.90;;;;;;5019706;28;20063;-79
2022/04/14 06:27:57;;;;;;;49.37;35.10;;;11.40;99.90;;;;;;5045316;28;20045;-80
2022/04/14 06:30:23;;;;;;;41.27;31.90;;;12.00;99.90;;;;;;5044578;28;20048;-79
2022/04/14 06:32:57;;;;;;;41.97;30.67;;;12.70;99.90;;;;;;5029024;28;20049;-78
2022/04/14 06:35:23;;;;;;;;;;;13.20;99.90;;;;;;5032105;28;20049;-80
2022/04/14 06:37:48;;;;;;;37.47;28.87;;;13.70;99.90;;;;;;5049805;28;19925;-80
2022/04/14 06:40:14;;;;;;;41.30;29.17;;;14.20;99.90;;;;;;5031326;28;20056;-80
2022/04/14 06:42:40;;;;;;;35.00;27.97;;;14.50;99.90;;;;;;5033066;28;20053;-80
2022/04/14 06:45:07;;;;;;;33.70;25.30;;;14.70;99.90;;;;;;5018025;28;20037;-79
2022/04/14 06:47:33;;;;;;;33.03;26.03;;;15.20;99.90;;;;;;5050362;28;20045;-81
2022/04/14 06:50:00;;;;;;;32.77;25.63;;;15.90;99.90;;;;;;5060663;28;20104;-80
2022/04/14 06:52:26;;;;;;;32.00;25.57;;;16.60;99.90;;;;;;5055644;28;20052;-80
2022/04/14 06:54:51;;;;;;;31.87;25.03;;;17.40;99.90;;;;;;5036542;28;20132;-79
2022/04/14 06:57:19;;;;;;;31.30;24.60;;;17.70;99.90;;;;;;5048453;28;20105;-81
2022/04/14 06:59:44;;;;;;;30.37;23.53;;;17.90;99.90;;;;;;5057603;28;20048;-80
2022/04/14 07:02:10;;;;;;;35.43;24.87;;;18.00;99.90;;;;;;5054346;28;20374;-79
2022/04/14 07:04:36;;;;;;;36.50;24.70;;;17.70;99.90;;;;;;5036440;28;20056;-79
2022/04/14 07:07:04;;;;;;;32.67;23.97;;;17.70;99.90;;;;;;5051555;28;20416;-79
2022/04/14 07:09:32;;;;;;;30.83;23.50;;;17.70;99.90;;;;;;5057887;28;20077;-79
2022/04/14 07:11:59;;;;;;;30.43;23.53;;;17.70;99.90;;;;;;5052786;28;20094;-78
2022/04/14 07:14:26;;;;;;;35.77;25.00;;;17.60;99.90;;;;;;5054334;28;20049;-81
2022/04/14 07:16:51;;;;;;;29.90;23.67;;;17.20;99.90;;;;;;5055603;28;20040;-79
2022/04/14 07:19:17;;;;;;;31.53;23.63;;;16.80;99.90;;;;;;5057284;28;20037;-79
2022/04/14 07:21:43;;;;;;;30.33;24.63;;;16.40;99.90;;;;;;5034113;28;20045;-79
2022/04/14 07:24:10;;;;;;;34.60;24.70;;;16.20;99.90;;;;;;5051457;28;20046;-81
2022/04/14 07:26:36;;;;;;;29.33;22.43;;;15.90;99.90;;;;;;5048149;28;20057;-77
2022/04/14 07:29:02;;;;;;;31.87;23.83;;;15.50;99.90;;;;;;5056429;28;20099;-80
2022/04/14 07:31:28;;;;;;;33.13;22.97;;;15.40;99.90;;;;;;5055228;28;20045;-80
2022/04/14 07:33:53;;;;;;;31.10;21.90;;;15.40;99.90;;;;;;5060230;28;20060;-80
2022/04/14 07:36:21;;;;;;;30.87;23.93;;;15.50;99.90;;;;;;5059115;28;20041;-79
2022/04/14 07:38:47;;;;;;;29.23;21.50;;;15.70;99.90;;;;;;5058601;28;20059;-79
2022/04/14 07:41:14;;;;;;;30.10;21.57;;;15.70;99.90;;;;;;5037682;28;20032;-77
2022/04/14 07:43:40;;;;;;;27.57;20.60;;;15.80;99.90;;;;;;5057583;28;20537;-79
2022/04/14 07:46:06;;;;;;;26.83;19.77;;;15.90;99.90;;;;;;5023146;28;20053;-79
2022/04/14 07:48:32;;;;;;;26.73;20.40;;;15.80;99.90;;;;;;5058779;28;20033;-79
2022/04/14 07:50:59;;;;;;;28.43;20.37;;;15.80;99.90;;;;;;5057323;28;20052;-78
2022/04/14 07:53:25;;;;;;;27.43;20.63;;;15.90;99.90;;;;;;5039779;28;20493;-80
2022/04/14 07:55:51;;;;;;;27.63;22.30;;;16.10;99.90;;;;;;5063052;28;20127;-79
2022/04/14 07:58:18;;;;;;;29.47;21.63;;;16.00;99.90;;;;;;5056815;28;20052;-78
2022/04/14 08:00:46;;;;;;;31.63;22.87;;;15.80;99.90;;;;;;5051880;28;20048;-80
2022/04/14 08:03:12;;;;;;;28.03;20.90;;;15.80;99.90;;;;;;5054295;28;20040;-80
2022/04/14 08:05:39;;;;;;;26.60;20.27;;;15.70;99.90;;;;;;5057736;28;20076;-79
2022/04/14 08:08:07;;;;;;;24.47;19.60;;;15.90;99.90;;;;;;5051593;28;20078;-79
2022/04/14 08:10:33;;;;;;;23.17;18.63;;;15.90;99.90;;;;;;5052486;28;20053;-80
2022/04/14 08:12:59;;;;;;;22.47;18.17;;;16.00;99.90;;;;;;5046973;28;20092;-80
2022/04/14 08:15:27;;;;;;;25.03;20.27;;;16.10;99.90;;;;;;5048985;28;20045;-79
2022/04/14 08:17:53;;;;;;;25.43;18.97;;;16.10;99.90;;;;;;5049814;28;20041;-77
2022/04/14 08:20:19;;;;;;;24.00;20.03;;;16.10;99.90;;;;;;5053508;28;20420;-78
2022/04/14 08:22:47;;;;;;;25.10;20.23;;;16.10;99.90;;;;;;5046844;28;20552;-77
2022/04/14 08:25:14;;;;;;;26.37;20.37;;;16.20;99.90;;;;;;5050243;28;20041;-78
2022/04/14 08:27:40;;;;;;;26.17;20.40;;;16.20;99.90;;;;;;5049356;28;20052;-82
2022/04/14 08:30:07;;;;;;;22.97;19.50;;;16.40;99.90;;;;;;5054676;28;20037;-78
2022/04/14 08:32:35;;;;;;;21.53;17.20;;;16.70;99.90;;;;;;5053072;28;20048;-78
2022/04/14 08:35:01;;;;;;;21.10;16.80;;;17.10;99.90;;;;;;5063371;28;20059;-80
2022/04/14 08:37:27;;;;;;;24.63;17.30;;;17.70;99.90;;;;;;5062646;28;20173;-80
2022/04/14 08:39:53;;;;;;;19.67;17.07;;;18.40;99.90;;;;;;5060504;28;20069;-77
2022/04/14 08:42:30;;;;;;;19.90;16.03;;;18.90;99.90;;;;;;5056708;28;20065;-80
2022/04/14 08:45:03;;;;;;;21.83;16.67;;;19.20;99.90;;;;;;5054760;28;20040;-79
2022/04/14 08:47:29;;;;;;;20.17;16.67;;;19.60;99.90;;;;;;5060873;28;20070;-79
2022/04/14 08:49:58;;;;;;;18.03;15.73;;;19.90;99.90;;;;;;5025283;28;20055;-80
2022/04/14 08:52:25;;;;;;;17.07;15.07;;;20.30;99.90;;;;;;5053149;28;20108;-79
2022/04/14 08:54:53;;;;;;;18.77;15.77;;;20.70;99.90;;;;;;5042979;28;20067;-80
2022/04/14 08:57:19;;;;;;;20.07;15.37;;;21.10;99.90;;;;;;5052913;28;20038;-81
2022/04/14 08:59:45;;;;;;;17.93;15.13;;;21.50;99.90;;;;;;5054274;28;20073;-80
2022/04/14 09:02:17;;;;;;;18.03;16.07;;;21.90;99.90;;;;;;5072225;28;20052;-78
2022/04/14 09:04:43;;;;;;;17.77;14.63;;;22.30;99.90;;;;;;5053023;28;20104;-80
2022/04/14 09:07:11;;;;;;;17.00;15.20;;;22.70;99.90;;;;;;5058564;28;20102;-77
2022/04/14 09:09:37;;;;;;;17.67;14.83;;;23.10;99.90;;;;;;5051804;28;20049;-79
2022/04/14 09:12:04;;;;;;;17.27;13.87;;;22.80;99.90;;;;;;5054075;28;20467;-79
2022/04/14 09:14:34;;;;;;;17.90;13.27;;;22.60;99.50;;;;;;5050790;28;20041;-78
2022/04/14 09:16:59;;;;;;;16.33;13.73;;;22.20;99.70;;;;;;5033716;28;20041;-80
2022/04/14 09:19:29;;;;;;;16.03;13.43;;;21.90;99.50;;;;;;5054280;28;20041;-79
2022/04/14 09:21:59;;;;;;;16.20;13.83;;;21.80;99.90;;;;;;5054340;28;20036;-81
2022/04/14 09:24:49;;;;;;;18.07;13.23;;;21.60;99.90;;;;;;5056996;28;20033;-80
2022/04/14 09:27:26;;;;;;;16.63;12.33;;;21.80;99.90;;;;;;5057219;28;20072;-82
2022/04/14 09:29:53;;;;;;;15.17;12.33;;;22.00;99.90;;;;;;5022977;28;20072;-78
2022/04/14 09:32:33;;;;;;;15.53;12.20;;;22.20;99.30;;;;;;5050332;28;20408;-79
2022/04/14 09:35:00;;;;;;;14.17;12.07;;;22.30;99.00;;;;;;5031408;28;21764;-79
2022/04/14 09:37:26;;;;;;;14.70;13.00;;;22.60;98.50;;;;;;5051382;28;20052;-80
2022/04/14 09:39:56;;;;;;;17.73;13.93;;;22.40;97.00;;;;;;5035348;28;20071;-79
2022/04/14 09:42:22;;;;;;;15.10;12.07;;;22.00;98.80;;;;;;5050171;28;20053;-81
2022/04/14 09:44:49;;;;;;;13.10;11.37;;;21.70;96.90;;;;;;5044028;28;20061;-80
2022/04/14 09:47:36;;;;;;;14.30;12.07;;;21.20;97.50;;;;;;5047732;28;20045;-80
2022/04/14 09:50:02;;;;;;;14.33;12.03;;;20.90;97.60;;;;;;5045011;28;20104;-80
2022/04/14 09:52:28;;;;;;;13.17;11.40;;;20.90;98.10;;;;;;5044895;28;20390;-79
2022/04/14 09:55:08;;;;;;;12.83;10.97;;;21.20;97.90;;;;;;5043165;28;20078;-79
2022/04/14 09:57:34;;;;;;;15.10;11.50;;;22.20;97.10;;;;;;5029696;28;20053;-80
2022/04/14 10:00:00;;;;;;;13.17;11.80;;;23.00;97.60;;;;;;5043987;28;20275;-79
2022/04/14 10:02:26;;;;;;;14.60;10.90;;;23.50;94.90;;;;;;5047017;28;20045;-79
2022/04/14 10:04:52;;;;;;;12.85;11.45;;;23.90;93.90;;;;;;5047603;28;20054;-80
2022/04/14 10:07:19;;;;;;;12.38;10.85;;;24.60;92.90;;;;;;5033624;28;20051;-79
2022/04/14 10:09:48;;;;;;;12.40;11.10;;;25.00;92.60;;;;;;5053873;28;20049;-78
2022/04/14 10:12:29;;;;;;;13.20;10.98;;;24.70;91.80;;;;;;5048781;28;20073;-80
2022/04/14 10:15:05;;;;;;;14.00;10.93;;;24.40;90.40;;;;;;5063522;28;20045;-81
2022/04/14 10:17:32;;;;;;;12.25;10.90;;;23.60;90.80;;;;;;5043077;28;20049;-80
2022/04/14 10:19:58;;;;;;;12.02;9.85;;;23.30;92.60;;;;;;5046690;28;20159;-78
2022/04/14 10:22:26;;;;;;;11.55;9.70;;;24.10;91.10;;;;;;5052130;28;20076;-78
2022/04/14 10:24:53;;;;;;;10.57;9.35;;;24.10;91.20;;;;;;5032590;28;20071;-79
2022/04/14 10:27:19;;;;;;;10.77;8.43;;;24.60;92.70;;;;;;5048341;28;20552;-77
2022/04/14 10:29:47;;;;;;;10.10;7.15;;;24.90;90.20;;;;;;5040282;28;20076;-79
2022/04/14 10:32:14;;;;;;;8.40;6.78;;;25.00;90.00;;;;;;5051078;28;20423;-81
2022/04/14 10:34:40;;;;;;;6.40;5.65;;;25.40;86.40;;;;;;5051876;28;20053;-78
2022/04/14 10:37:08;;;;;;;12.23;6.10;;;25.50;86.40;;;;;;5051087;28;20044;-78
2022/04/14 10:39:39;;;;;;;7.25;6.00;;;25.40;85.10;;;;;;5028550;28;20053;-80
2022/04/14 10:42:07;;;;;;;6.10;5.50;;;24.80;84.50;;;;;;5030788;28;20052;-79
2022/04/14 10:44:43;;;;;;;9.63;6.07;;;24.40;84.20;;;;;;5033316;28;20068;-81
2022/04/14 10:47:11;;;;;;;9.98;5.93;;;24.50;89.10;;;;;;5052759;28;20052;-81
2022/04/14 10:49:39;;;;;;;7.35;5.18;;;24.50;85.30;;;;;;5046434;28;20501;-79
2022/04/14 10:52:26;;;;;;;7.72;5.22;;;24.30;84.70;;;;;;5049042;28;20037;-78
2022/04/14 10:54:55;;;;;;;6.78;6.07;;;24.60;85.40;;;;;;5016409;28;20473;-81
2022/04/14 10:57:35;;;;;;;9.50;6.78;;;24.80;83.40;;;;;;5047919;28;20053;-80
2022/04/14 11:00:22;;;;;;;8.88;6.90;;;24.30;83.80;;;;;;5032662;28;20057;-80
2022/04/14 11:03:07;;;;;;;9.82;7.55;;;23.50;86.40;;;;;;5037874;28;20067;-79
2022/04/14 11:05:38;;;;;;;9.35;7.50;;;22.80;89.10;;;;;;5051554;28;20085;-79
2022/04/14 11:08:20;;;;;;;8.68;6.65;;;22.40;90.10;;;;;;5025714;28;20566;-81
2022/04/14 11:10:52;;;;;;;8.77;5.60;;;22.00;90.10;;;;;;5028995;28;20106;-80
2022/04/14 11:13:18;;;;;;;9.77;6.10;;;22.30;91.20;;;;;;5016781;28;20418;-80
2022/04/14 11:15:44;;;;;;;9.00;5.47;;;22.90;91.30;;;;;;5030217;28;20044;-79
2022/04/14 11:18:11;;;;;;;8.52;4.30;;;23.60;90.60;;;;;;5047341;28;20068;-78
2022/04/14 11:20:54;;;;;;;6.30;4.32;;;23.90;86.40;;;;;;5023995;28;20459;-78
2022/04/14 11:23:24;;;;;;;6.70;3.92;;;24.00;85.70;;;;;;5046875;28;20052;-77
2022/04/14 11:25:51;;;;;;;5.78;3.58;;;24.20;84.80;;;;;;5038587;28;20037;-80
2022/04/14 11:28:22;;;;;;;8.05;3.40;;;24.30;86.30;;;;;;5051669;28;20072;-80
2022/04/14 11:30:49;;;;;;;5.97;2.30;;;24.30;88.30;;;;;;5041471;28;20041;-79
2022/04/14 11:33:22;;;;;;;4.72;2.40;;;23.80;82.60;;;;;;5045857;28;20069;-79
2022/04/14 11:35:48;;;;;;;3.65;2.00;;;23.10;82.50;;;;;;5048709;28;20784;-79
2022/04/14 11:38:44;;;;;;;5.45;2.42;;;23.20;85.10;;;;;;5054263;28;20553;-79
2022/04/14 11:41:31;;;;;;;8.88;2.83;;;24.00;84.30;;;;;;5059749;28;20046;-78
2022/04/14 11:43:57;;;;;;;5.40;2.70;;;24.40;83.10;;;;;;5025648;28;20074;-79
2022/04/14 11:46:23;;;;;;;9.00;3.70;;;24.60;86.30;;;;;;5044094;28;20053;-80
2022/04/14 11:48:51;;;;;;;7.25;3.75;;;24.90;82.40;;;;;;5046499;28;20040;-78
2022/04/14 11:51:17;;;;;;;4.75;3.35;;;24.30;81.00;;;;;;5027661;28;20133;-79
2022/04/14 11:53:43;;;;;;;7.00;4.15;;;24.00;84.50;;;;;;5048271;28;20041;-78
2022/04/14 11:56:15;;;;;;;7.30;3.67;;;24.00;83.80;;;;;;5026001;28;20052;-77
2022/04/14 11:58:41;;;;;;;7.30;3.45;;;23.80;85.60;;;;;;5045027;28;20127;-78
2022/04/14 12:01:07;;;;;;;7.43;3.88;;;24.00;80.90;;;;;;5035142;28;20149;-76
2022/04/14 12:03:33;;;;;;;6.53;3.95;;;24.00;81.80;;;;;;5047868;28;20136;-77
2022/04/14 12:06:06;;;;;;;8.95;3.67;;;23.90;81.00;;;;;;5025682;28;20051;-77
2022/04/14 12:08:32;;;;;;;8.35;3.90;;;23.70;79.30;;;;;;5033544;28;20057;-78
2022/04/14 12:11:01;;;;;;;8.10;3.58;;;23.50;81.40;;;;;;5011528;28;20041;-78
2022/04/14 12:13:27;;;;;;;4.97;3.10;;;23.30;82.20;;;;;;5046381;28;20038;-78
2022/04/14 12:16:03;;;;;;;5.00;2.33;;;23.20;83.70;;;;;;5047476;28;20033;-79
2022/04/14 12:18:30;;;;;;;5.60;2.22;;;23.30;83.10;;;;;;5048901;28;20049;-80
2022/04/14 12:20:56;;;;;;;4.80;1.83;;;23.40;81.70;;;;;;5033053;28;20045;-79
2022/04/14 12:23:23;;;;;;;3.67;2.33;;;23.10;80.70;;;;;;5034210;28;20064;-78
2022/04/14 12:25:49;;;;;;;5.20;2.30;;;22.90;83.70;;;;;;5046346;28;20041;-75
2022/04/14 12:28:15;;;;;;;4.20;2.03;;;23.00;81.60;;;;;;5026275;28;20505;-79
2022/04/14 12:30:41;;;;;;;8.05;3.03;;;23.20;82.70;;;;;;5006852;28;20084;-77
2022/04/14 12:33:08;;;;;;;6.82;3.50;;;23.30;83.70;;;;;;5030612;28;20096;-78
2022/04/14 12:35:38;;;;;;;9.07;3.22;;;23.40;84.50;;;;;;5034384;28;20051;-79